Météo Nord-Pas-de-Calais   La météo au plus près de chez vous

Station météorologique

Observations météo à Montlucon (03185)

03185007 229 m Dernier relevé à 23:48
13.7°C
Humidité 76 % Vent 1.8 km/h

Journée consultée

Mardi 1 Septembre 2026

Synthèse de la journée

Périodes de référence en UTC

Température maximale

27.1°C

à 18:00

06h 06h

Température minimale

12.7°C

à 07:18

18h 18h

Rafale maximale

20 km/h

à 17:36

00h 00h

Précipitations

0 mm

Cumul quotidien

06h 06h

Graphiques de la journée

Heure locale Réduire

Données détaillées

Relevés météo

Pas de 6 minutes Afficher les relevés infra-horaires
Relevés météo détaillés à Montlucon pour le Mardi 1 Septembre 2026
Heure Température °C Point de rosée °C Humidité % Vent moyen (raf.), km/h Précipitations mm Hauteur neige cm
23:48 13.7 °C 11 °C 84 % 2 km/h (5 km/h) 0 mm0 mm 0 cm
23:42 13.6 °C 10.6 °C 82 % 2 km/h (3 km/h) 0 mm0 mm 0 cm
23:36 13.7 °C 10.5 °C 81 % 2 km/h (3 km/h) 0 mm0 mm 0 cm
23:30 14 °C 10.8 °C 81 % 0 km/h (2 km/h) 0 mm0 mm 0 cm
23:24 14.2 °C 10.6 °C 79 % 0 km/h (2 km/h) 0 mm0 mm 0 cm
23:18 14.5 °C 10.9 °C 79 % 0 km/h (2 km/h) 0 mm0 mm 0 cm
23:12 14.8 °C 11 °C 78 % 0 km/h (3 km/h) 0 mm0 mm 0 cm
23:06 15 °C 10.8 °C 76 % 2 km/h (3 km/h) 0 mm0 mm 0 cm
23:00 15.6 °C 10.6 °C 72 % 2 km/h (3 km/h) 0 mm0 mm 0 cm
22:54 15.8 °C 11.2 °C 74 % 0 km/h (4 km/h) 0 mm0 mm 0 cm
22:48 15.5 °C 11.3 °C 76 % 2 km/h (4 km/h) 0 mm0 mm 0 cm
22:42 15.3 °C 11.3 °C 77 % 4 km/h (9 km/h) 0 mm0 mm 0 cm
22:36 14.9 °C 11.1 °C 78 % 5 km/h (9 km/h) 0 mm0 mm 0 cm
22:30 14.9 °C 11.1 °C 78 % 6 km/h (8 km/h) 0 mm0 mm 0 cm
22:24 14.9 °C 10.9 °C 77 % 5 km/h (8 km/h) 0 mm0 mm 0 cm
22:18 15.3 °C 11.1 °C 76 % 4 km/h (6 km/h) 0 mm0 mm 0 cm
22:12 15.5 °C 11.3 °C 76 % 3 km/h (4 km/h) 0 mm0 mm 0 cm
22:06 15.5 °C 11.1 °C 75 % 3 km/h (4 km/h) 0 mm0 mm 0 cm
22:00 16.3 °C 11 °C 71 % 2 km/h (4 km/h) 0 mm0 mm 0 cm
21:54 16.8 °C 11.3 °C 70 % 2 km/h (4 km/h) 0 mm0 mm 0 cm
21:48 17.3 °C 11.6 °C 69 % 3 km/h (5 km/h) 0 mm0 mm 0 cm
21:42 17.3 °C 11.3 °C 68 % 4 km/h (5 km/h) 0 mm0 mm 0 cm
21:36 17.7 °C 11.3 °C 66 % 5 km/h (9 km/h) 0 mm0 mm 0 cm
21:30 17.9 °C 11 °C 64 % 5 km/h (9 km/h) 0 mm0 mm 0 cm
21:24 18.7 °C 11 °C 61 % 3 km/h (5 km/h) 0 mm0 mm 0 cm
21:18 20.3 °C 11.5 °C 57 % 2 km/h (4 km/h) 0 mm0 mm 0 cm
21:12 20.8 °C 11.7 °C 56 % 2 km/h (4 km/h) 0 mm0 mm 0 cm
21:06 21.2 °C 11.8 °C 55 % 4 km/h (6 km/h) 0 mm0 mm 0 cm
21:00 21.4 °C 11.7 °C 54 % 5 km/h (8 km/h) 0 mm0 mm 0 cm
20:54 21.7 °C 11.7 °C 53 % 5 km/h (8 km/h) 0 mm0 mm 0 cm
20:48 22 °C 12 °C 53 % 6 km/h (8 km/h) 0 mm0 mm 0 cm
20:42 22.2 °C 11.9 °C 52 % 6 km/h (10 km/h) 0 mm0 mm 0 cm
20:36 22.5 °C 11.9 °C 51 % 6 km/h (12 km/h) 0 mm0 mm 0 cm
20:30 22.8 °C 11.8 °C 50 % 5 km/h (11 km/h) 0 mm0 mm 0 cm
20:24 23 °C 11.7 °C 49 % 7 km/h (13 km/h) 0 mm0 mm 0 cm
20:18 23.3 °C 11.7 °C 48 % 8 km/h (13 km/h) 0 mm0 mm 0 cm
20:12 23.8 °C 11.8 °C 47 % 9 km/h (14 km/h) 0 mm0 mm 0 cm
20:06 24 °C 11.7 °C 46 % 10 km/h (17 km/h) 0 mm0 mm 0 cm
20:00 24.3 °C 11.6 °C 45 % 12 km/h (17 km/h) 0 mm0 mm 0 cm
19:54 24.5 °C 11.4 °C 44 % 12 km/h (17 km/h) 0 mm0 mm 0 cm
19:48 24.7 °C 10.9 °C 42 % 12 km/h (17 km/h) 0 mm0 mm 0 cm
19:42 25 °C 10.8 °C 41 % 12 km/h (18 km/h) 0 mm0 mm 0 cm
19:36 25.3 °C 10.3 °C 39 % 11 km/h (18 km/h) 0 mm0 mm 0 cm
19:30 25.4 °C 10.4 °C 39 % 11 km/h (18 km/h) 0 mm0 mm 0 cm
19:24 25.8 °C 10.4 °C 38 % 10 km/h (16 km/h) 0 mm0 mm 0 cm
19:18 25.8 °C 10.4 °C 38 % 12 km/h (18 km/h) 0 mm0 mm 0 cm
19:12 25.9 °C 10.1 °C 37 % 11 km/h (18 km/h) 0 mm0 mm 0 cm
19:06 26.2 °C 10.8 °C 38 % 8 km/h (14 km/h) 0 mm0 mm 0 cm
19:00 25.8 °C 10.8 °C 39 % 8 km/h (15 km/h) 0 mm0 mm 0 cm
18:54 25.1 °C 10.5 °C 40 % 9 km/h (15 km/h) 0 mm0 mm 0 cm
18:48 25.1 °C 10.5 °C 40 % 12 km/h (18 km/h) 0 mm0 mm 0 cm
18:42 25.2 °C 10.3 °C 39 % 13 km/h (19 km/h) 0 mm0 mm 0 cm
18:36 25.4 °C 10.4 °C 39 % 11 km/h (19 km/h) 0 mm0 mm 0 cm
18:30 25.8 °C 10.8 °C 39 % 8 km/h (14 km/h) 0 mm0 mm 0 cm
18:24 26.2 °C 10.8 °C 38 % 7 km/h (16 km/h) 0 mm0 mm 0 cm
18:18 26.4 °C 10.9 °C 38 % 8 km/h (17 km/h) 0 mm0 mm 0 cm
18:12 26.3 °C 10.8 °C 38 % 9 km/h (17 km/h) 0 mm0 mm 0 cm
18:06 26.4 °C 10.5 °C 37 % 8 km/h (15 km/h) 0 mm0 mm 0 cm
18:00 26.7 °C 10.8 °C 37 % 8 km/h (17 km/h) 0 mm0 mm 0 cm
17:54 26.6 °C 10.7 °C 37 % 8 km/h (17 km/h) 0 mm0 mm 0 cm
17:48 26.6 °C 10.3 °C 36 % 9 km/h (18 km/h) 0 mm0 mm 0 cm
17:42 26.6 °C 10.3 °C 36 % 10 km/h (20 km/h) 0 mm0 mm 0 cm
17:36 27 °C 11.1 °C 37 % 9 km/h (20 km/h) 0 mm0 mm 0 cm
17:30 26.9 °C 10.6 °C 36 % 8 km/h (19 km/h) 0 mm0 mm 0 cm
17:24 26.8 °C 10.9 °C 37 % 8 km/h (19 km/h) 0 mm0 mm 0 cm
17:18 26.9 °C 10.6 °C 36 % 5 km/h (16 km/h) 0 mm0 mm 0 cm
17:12 26.7 °C 10 °C 35 % 5 km/h (12 km/h) 0 mm0 mm 0 cm
17:06 26.6 °C 10.3 °C 36 % 5 km/h (12 km/h) 0 mm0 mm 0 cm
17:00 26.5 °C 10.6 °C 37 % 5 km/h (12 km/h) 0 mm0 mm 0 cm
16:54 26.4 °C 10.1 °C 36 % 5 km/h (10 km/h) 0 mm0 mm 0 cm
16:48 26.3 °C 10 °C 36 % 5 km/h (10 km/h) 0 mm0 mm 0 cm
16:42 26.3 °C 10.4 °C 37 % 6 km/h (11 km/h) 0 mm0 mm 0 cm
16:36 26.4 °C 10.5 °C 37 % 8 km/h (15 km/h) 0 mm0 mm 0 cm
16:30 27 °C 10.7 °C 36 % 6 km/h (15 km/h) 0 mm0 mm 0 cm
16:24 26.7 °C 10.4 °C 36 % 7 km/h (17 km/h) 0 mm0 mm 0 cm
16:18 26.3 °C 10.4 °C 37 % 8 km/h (17 km/h) 0 mm0 mm 0 cm
16:12 26 °C 10.2 °C 37 % 9 km/h (14 km/h) 0 mm0 mm 0 cm
16:06 26.5 °C 10.2 °C 36 % 9 km/h (14 km/h) 0 mm0 mm 0 cm
16:00 26.6 °C 10.7 °C 37 % 8 km/h (14 km/h) 0 mm0 mm 0 cm
15:54 26.5 °C 11.4 °C 39 % 6 km/h (13 km/h) 0 mm0 mm 0 cm
15:48 25.8 °C 11.2 °C 40 % 6 km/h (13 km/h) 0 mm0 mm 0 cm
15:42 25.3 °C 10.7 °C 40 % 7 km/h (13 km/h) 0 mm0 mm 0 cm
15:36 25.8 °C 11.2 °C 40 % 9 km/h (18 km/h) 0 mm0 mm 0 cm
15:30 26 °C 11.7 °C 41 % 8 km/h (18 km/h) 0 mm0 mm 0 cm
15:24 25.9 °C 11.3 °C 40 % 12 km/h (18 km/h) 0 mm0 mm 0 cm
15:18 25.8 °C 11.9 °C 42 % 8 km/h (18 km/h) 0 mm0 mm 0 cm
15:12 25.9 °C 11.6 °C 41 % 4 km/h (10 km/h) 0 mm0 mm 0 cm
15:06 25.6 °C 12.1 °C 43 % 8 km/h (15 km/h) 0 mm0 mm 0 cm
15:00 26 °C 12.1 °C 42 % 8 km/h (15 km/h) 0 mm0 mm 0 cm
14:54 25.9 °C 12.4 °C 43 % 6 km/h (13 km/h) 0 mm0 mm 0 cm
14:48 25.7 °C 11.8 °C 42 % 5 km/h (13 km/h) 0 mm0 mm 0 cm
14:42 25.7 °C 11.8 °C 42 % 7 km/h (17 km/h) 0 mm0 mm 0 cm
14:36 25.7 °C 11.8 °C 42 % 10 km/h (20 km/h) 0 mm0 mm 0 cm
14:30 25.4 °C 11.9 °C 43 % 9 km/h (18 km/h) 0 mm0 mm 0 cm
14:24 25.6 °C 12.4 °C 44 % 9 km/h (16 km/h) 0 mm0 mm 0 cm
14:18 25.8 °C 12.6 °C 44 % 8 km/h (16 km/h) 0 mm0 mm 0 cm
14:12 25.4 °C 12.3 °C 44 % 8 km/h (15 km/h) 0 mm0 mm 0 cm
14:06 25.5 °C 11.6 °C 42 % 5 km/h (12 km/h) 0 mm0 mm 0 cm
14:00 25.1 °C 12.3 °C 45 % 4 km/h (10 km/h) 0 mm0 mm 0 cm
13:54 25.1 °C 12 °C 44 % 4 km/h (10 km/h) 0 mm0 mm 0 cm
13:48 25.2 °C 11.7 °C 43 % 4 km/h (9 km/h) 0 mm0 mm 0 cm
13:42 25.1 °C 12.3 °C 45 % 5 km/h (13 km/h) 0 mm0 mm 0 cm
13:36 24.7 °C 12 °C 45 % 5 km/h (13 km/h) 0 mm0 mm 0 cm
13:30 24.6 °C 12.2 °C 46 % 5 km/h (12 km/h) 0 mm0 mm 0 cm
13:24 24.7 °C 12.3 °C 46 % 6 km/h (11 km/h) 0 mm0 mm 0 cm
13:18 24.5 °C 11.8 °C 45 % 7 km/h (17 km/h) 0 mm0 mm 0 cm
13:12 24.5 °C 11.8 °C 45 % 5 km/h (12 km/h) 0 mm0 mm 0 cm
13:06 24.3 °C 12.3 °C 47 % 5 km/h (11 km/h) 0 mm0 mm 0 cm
13:00 23.7 °C 12.3 °C 49 % 4 km/h (11 km/h) 0 mm0 mm 0 cm
12:54 23.5 °C 12.5 °C 50 % 4 km/h (11 km/h) 0 mm0 mm 0 cm
12:48 23.8 °C 12.4 °C 49 % 4 km/h (13 km/h) 0 mm0 mm 0 cm
12:42 23.7 °C 12.3 °C 49 % 6 km/h (16 km/h) 0 mm0 mm 0 cm
12:36 24.4 °C 12.4 °C 47 % 5 km/h (13 km/h) 0 mm0 mm 0 cm
12:30 23.8 °C 13.1 °C 51 % 4 km/h (12 km/h) 0 mm0 mm 0 cm
12:24 23.5 °C 12.5 °C 50 % 3 km/h (8 km/h) 0 mm0 mm 0 cm
12:18 23.4 °C 13 °C 52 % 4 km/h (10 km/h) 0 mm0 mm 0 cm
12:12 23.4 °C 13 °C 52 % 7 km/h (12 km/h) 0 mm0 mm 0 cm
12:06 23.6 °C 13.5 °C 53 % 6 km/h (12 km/h) 0 mm0 mm 0 cm
12:00 23.4 °C 13 °C 52 % 5 km/h (13 km/h) 0 mm0 mm 0 cm
11:54 23.2 °C 13.7 °C 55 % 6 km/h (12 km/h) 0 mm0 mm 0 cm
11:48 22.9 °C 13.9 °C 57 % 6 km/h (13 km/h) 0 mm0 mm 0 cm
11:42 22.8 °C 13.3 °C 55 % 5 km/h (14 km/h) 0 mm0 mm 0 cm
11:36 22.2 °C 13.3 °C 57 % 4 km/h (14 km/h) 0 mm0 mm 0 cm
11:30 22.1 °C 13.2 °C 57 % 3 km/h (8 km/h) 0 mm0 mm 0 cm
11:24 22.2 °C 13.3 °C 57 % 5 km/h (11 km/h) 0 mm0 mm 0 cm
11:18 22.4 °C 13.7 °C 58 % 4 km/h (11 km/h) 0 mm0 mm 0 cm
11:12 22 °C 13.6 °C 59 % 5 km/h (9 km/h) 0 mm0 mm 0 cm
11:06 21.9 °C 13.8 °C 60 % 5 km/h (11 km/h) 0 mm0 mm 0 cm
11:00 21.3 °C 13 °C 59 % 4 km/h (11 km/h) 0 mm0 mm 0 cm
10:54 21.2 °C 13.1 °C 60 % 4 km/h (11 km/h) 0 mm0 mm 0 cm
10:48 21.2 °C 13.6 °C 62 % 4 km/h (9 km/h) 0 mm0 mm 0 cm
10:42 21 °C 13.2 °C 61 % 2 km/h (8 km/h) 0 mm0 mm 0 cm
10:36 20.5 °C 13.2 °C 63 % 3 km/h (7 km/h) 0 mm0 mm 0 cm
10:30 20.3 °C 13.3 °C 64 % 3 km/h (7 km/h) 0 mm0 mm 0 cm
10:24 19.9 °C 13.1 °C 65 % 3 km/h (6 km/h) 0 mm0 mm 0 cm
10:18 20 °C 13 °C 64 % 4 km/h (9 km/h) 0 mm0 mm 0 cm
10:12 20.2 °C 13.6 °C 66 % 4 km/h (9 km/h) 0 mm0 mm 0 cm
10:06 19.6 °C 13.5 °C 68 % 3 km/h (8 km/h) 0 mm0 mm 0 cm
10:00 19.6 °C 13.3 °C 67 % 3 km/h (7 km/h) 0 mm0 mm 0 cm
09:54 19.3 °C 13.7 °C 70 % 4 km/h (8 km/h) 0 mm0 mm 0 cm
09:48 19.2 °C 13.4 °C 69 % 3 km/h (8 km/h) 0 mm0 mm 0 cm
09:42 18.9 °C 13.3 °C 70 % 3 km/h (7 km/h) 0 mm0 mm 0 cm
09:36 18.4 °C 13.5 °C 73 % 4 km/h (8 km/h) 0 mm0 mm 0 cm
09:30 17.8 °C 13.1 °C 74 % 4 km/h (8 km/h) 0 mm0 mm 0 cm
09:24 17.7 °C 13.2 °C 75 % 4 km/h (7 km/h) 0 mm0 mm 0 cm
09:18 17.2 °C 12.9 °C 76 % 4 km/h (7 km/h) 0 mm0 mm 0 cm
09:12 16.9 °C 12.8 °C 77 % 5 km/h (9 km/h) 0 mm0 mm 0 cm
09:06 16.7 °C 13 °C 79 % 6 km/h (9 km/h) 0 mm0 mm 0 cm
09:00 16.5 °C 13 °C 80 % 7 km/h (10 km/h) 0 mm0 mm 0 cm
08:54 16.2 °C 12.9 °C 81 % 7 km/h (10 km/h) 0 mm0 mm 0 cm
08:48 15.9 °C 13 °C 83 % 7 km/h (10 km/h) 0 mm0 mm 0 cm
08:42 15.7 °C 12.8 °C 83 % 6 km/h (9 km/h) 0 mm0 mm 0 cm
08:36 15.4 °C 12.7 °C 84 % 6 km/h (9 km/h) 0 mm0 mm 0 cm
08:30 15 °C 12.5 °C 85 % 6 km/h (10 km/h) 0 mm0 mm 0 cm
08:24 14.6 °C 12.3 °C 86 % 7 km/h (10 km/h) 0 mm0 mm 0 cm
08:18 14.3 °C 12.2 °C 87 % 8 km/h (12 km/h) 0 mm0 mm 0 cm
08:12 14 °C 12 °C 88 % 9 km/h (12 km/h) 0 mm0 mm 0 cm
08:06 13.6 °C 11.8 °C 89 % 8 km/h (12 km/h) 0 mm0 mm 0 cm
08:00 13.3 °C 11.7 °C 90 % 6 km/h (10 km/h) 0 mm0 mm 0 cm
07:54 13.1 °C 11.7 °C 91 % 6 km/h (11 km/h) 0 mm0 mm 0 cm
07:48 13 °C 11.6 °C 91 % 5 km/h (9 km/h) 0 mm0 mm 0 cm
07:42 12.9 °C 11.5 °C 91 % 5 km/h (9 km/h) 0 mm0 mm 0 cm
07:36 12.8 °C 11.5 °C 92 % 5 km/h (9 km/h) 0 mm0 mm 0 cm
07:30 12.7 °C 11.4 °C 92 % 5 km/h (9 km/h) 0 mm0 mm 0 cm
07:24 12.7 °C 11.4 °C 92 % 6 km/h (12 km/h) 0 mm0 mm 0 cm
07:18 12.7 °C 11.4 °C 92 % 8 km/h (14 km/h) 0 mm0 mm 0 cm
07:12 12.8 °C 11.5 °C 92 % 8 km/h (14 km/h) 0 mm0 mm 0 cm
07:06 12.8 °C 11.5 °C 92 % 7 km/h (11 km/h) 0 mm0 mm 0 cm
07:00 12.9 °C 11.5 °C 91 % 6 km/h (10 km/h) 0 mm0 mm 0 cm
06:54 13 °C 11.6 °C 91 % 6 km/h (9 km/h) 0 mm0 mm 0 cm
06:48 13 °C 11.6 °C 91 % 6 km/h (10 km/h) 0 mm0 mm 0 cm
06:42 13 °C 11.6 °C 91 % 6 km/h (9 km/h) 0 mm0 mm 0 cm
06:36 13.2 °C 11.8 °C 91 % 6 km/h (10 km/h) 0 mm0 mm 0 cm
06:30 13.3 °C 11.9 °C 91 % 7 km/h (11 km/h) 0 mm0 mm 0 cm
06:24 13.3 °C 11.7 °C 90 % 7 km/h (11 km/h) 0 mm0 mm 0 cm
06:18 13.5 °C 11.9 °C 90 % 6 km/h (10 km/h) 0 mm0 mm 0 cm
06:12 13.6 °C 12 °C 90 % 5 km/h (10 km/h) 0 mm0 mm 0 cm
06:06 13.7 °C 11.9 °C 89 % 7 km/h (10 km/h) 0 mm0 mm 0 cm
06:00 13.8 °C 12 °C 89 % 7 km/h (10 km/h) 0 mm0 mm 0 cm
05:54 13.8 °C 12 °C 89 % 7 km/h (10 km/h) 0 mm0 mm 0 cm
05:48 13.8 °C 12 °C 89 % 6 km/h (9 km/h) 0 mm0 mm 0 cm
05:42 13.9 °C 12.3 °C 90 % 5 km/h (10 km/h) 0 mm0 mm 0 cm
05:36 13.7 °C 12.1 °C 90 % 5 km/h (8 km/h) 0 mm0 mm 0 cm
05:30 13.4 °C 11.1 °C 86 % 5 km/h (8 km/h) 0 mm0 mm 0 cm
05:24 14 °C 12 °C 88 % 5 km/h (9 km/h) 0 mm0 mm 0 cm
05:18 13.9 °C 11.9 °C 88 % 5 km/h (8 km/h) 0 mm0 mm 0 cm
05:12 13.9 °C 11.8 °C 87 % 6 km/h (9 km/h) 0 mm0 mm 0 cm
05:06 14.1 °C 12.1 °C 88 % 5 km/h (7 km/h) 0 mm0 mm 0 cm
05:00 14 °C 12.2 °C 89 % 4 km/h (6 km/h) 0 mm0 mm 0 cm
04:54 13.8 °C 11.8 °C 88 % 4 km/h (6 km/h) 0 mm0 mm 0 cm
04:48 13.8 °C 12 °C 89 % 4 km/h (5 km/h) 0 mm0 mm 0 cm
04:42 13.9 °C 12.1 °C 89 % 4 km/h (6 km/h) 0 mm0 mm 0 cm
04:36 13.7 °C 12.1 °C 90 % 5 km/h (7 km/h) 0 mm0 mm 0 cm
04:30 13.8 °C 12 °C 89 % 8 km/h (11 km/h) 0 mm0 mm 0 cm
04:24 13.9 °C 11.9 °C 88 % 9 km/h (12 km/h) 0 mm0 mm 0 cm
04:18 14.1 °C 12.1 °C 88 % 10 km/h (15 km/h) 0 mm0 mm 0 cm
04:12 14.1 °C 12.3 °C 89 % 11 km/h (15 km/h) 0 mm0 mm 0 cm
04:06 14 °C 12.2 °C 89 % 10 km/h (14 km/h) 0 mm0 mm 0 cm
04:00 13.8 °C 11.8 °C 88 % 8 km/h (12 km/h) 0 mm0 mm 0 cm
03:54 13.8 °C 11.8 °C 88 % 7 km/h (9 km/h) 0 mm0 mm 0 cm
03:48 14 °C 11.9 °C 87 % 7 km/h (10 km/h) 0 mm0 mm 0 cm
03:42 14.1 °C 12 °C 87 % 7 km/h (9 km/h) 0 mm0 mm 0 cm
03:36 14.2 °C 12.1 °C 87 % 6 km/h (9 km/h) 0 mm0 mm 0 cm
03:30 14.2 °C 11.7 °C 85 % 5 km/h (9 km/h) 0 mm0 mm 0 cm
03:24 14.6 °C 12.3 °C 86 % 5 km/h (9 km/h) 0 mm0 mm 0 cm
03:18 15.3 °C 12.8 °C 85 % 6 km/h (9 km/h) 0 mm0 mm 0 cm
03:12 15.3 °C 13 °C 86 % 5 km/h (10 km/h) 0 mm0 mm 0 cm
03:06 15.3 °C 13 °C 86 % 5 km/h (10 km/h) 0 mm0 mm 0 cm
03:00 14.6 °C 12.5 °C 87 % 5 km/h (11 km/h) 0 mm0 mm 0 cm
02:54 14.8 °C 12.5 °C 86 % 6 km/h (11 km/h) 0 mm0 mm 0 cm
02:48 14.5 °C 12 °C 85 % 4 km/h (6 km/h) 0 mm0 mm 0 cm
02:42 15 °C 12.7 °C 86 % 4 km/h (9 km/h) 0 mm0 mm 0 cm
02:36 15.3 °C 12.4 °C 83 % 4 km/h (9 km/h) 0 mm0 mm 0 cm
02:30 15.5 °C 12.4 °C 82 % 3 km/h (7 km/h) 0 mm0 mm 0 cm
02:24 15.8 °C 12.5 °C 81 % 4 km/h (9 km/h) 0 mm0 mm 0 cm
02:18 16.1 °C 12.8 °C 81 % 4 km/h (9 km/h) 0 mm0 mm 0 cm
02:12 16.1 °C 12.6 °C 80 % 5 km/h (17 km/h) 0 mm0 mm 0 cm
02:06 16.2 °C 12.7 °C 80 % 5 km/h (17 km/h) 0 mm0 mm 0 cm
02:00 15.9 °C 13 °C 83 % 4 km/h (8 km/h) 0 mm0 mm 0 cm
01:54 15.8 °C 13.5 °C 86 % 3 km/h (8 km/h) 0 mm0 mm 0 cm
01:48 15.8 °C 13.3 °C 85 % 3 km/h (9 km/h) 0 mm0 mm 0 cm
01:42 16.1 °C 13.9 °C 87 % 5 km/h (10 km/h) 0 mm0 mm 0 cm
01:36 15.4 °C 12.9 °C 85 % 5 km/h (9 km/h) 0 mm0 mm 0 cm
01:30 15.8 °C 13.3 °C 85 % 4 km/h (8 km/h) 0 mm0 mm 0 cm
01:24 16.1 °C 12.8 °C 81 % 3 km/h (6 km/h) 0 mm0 mm 0 cm
01:18 16.7 °C 13.6 °C 82 % 2 km/h (6 km/h) 0 mm0 mm 0 cm
01:12 16.9 °C 13.8 °C 82 % 4 km/h (9 km/h) 0 mm0 mm 0 cm
01:06 17 °C 13.9 °C 82 % 6 km/h (9 km/h) 0 mm0 mm 0 cm
01:00 17.1 °C 14 °C 82 % 5 km/h (10 km/h) 0 mm0 mm 0 cm
00:54 17.1 °C 14 °C 82 % 6 km/h (10 km/h) 0 mm0 mm 0 cm
00:48 16.8 °C 14.3 °C 85 % 5 km/h (9 km/h) 0 mm0 mm 0 cm
00:42 15.9 °C 13.6 °C 86 % 3 km/h (6 km/h) 0 mm0 mm 0 cm
00:36 15.8 °C 13.6 °C 87 % 3 km/h (6 km/h) 0 mm0 mm 0 cm
00:30 15.9 °C 13.7 °C 87 % 2 km/h (4 km/h) 0 mm0 mm 0 cm
00:24 15.7 °C 13.7 °C 88 % 2 km/h (4 km/h) 0 mm0 mm 0 cm
00:18 15.4 °C 12.9 °C 85 % 3 km/h (5 km/h) 0 mm0 mm 0 cm
00:12 15.5 °C 12.8 °C 84 % 4 km/h (7 km/h) 0 mm0 mm 0 cm
00:06 15.9 °C 13.4 °C 85 % 4 km/h (7 km/h) 0 mm0 mm 0 cm
00:00 15.9 °C 13.2 °C 84 % 4 km/h (5 km/h) 0 mm0 mm 0 cm

Données via Météo-France

Relevés météo à Montlucon

Cette page rassemble les observations de la station de Montlucon : température, humidité, vent, précipitations et pression atmosphérique. Les graphiques facilitent le suivi de la journée, tandis que le tableau donne accès aux mesures horaires et infra-horaires disponibles.

Pour replacer ces mesures dans leur contexte, consultez la climatologie de Montlucon ainsi que ses normales et records. Retrouvez aussi la carte des observations météo en temps réel.